createdAt,value
2019-04-26T00:02:22.247Z,18.40
2019-04-26T00:04:48.969Z,18.40
2019-04-26T00:07:15.687Z,18.40
2019-04-26T00:09:43.195Z,18.40
2019-04-26T00:12:18.327Z,18.30
2019-04-26T00:14:47.246Z,18.30
2019-04-26T00:17:15.693Z,18.30
2019-04-26T00:19:42.424Z,18.30
2019-04-26T00:22:09.461Z,18.30
2019-04-26T00:24:37.062Z,18.30
2019-04-26T00:27:03.792Z,18.30
2019-04-26T00:29:30.083Z,18.30
2019-04-26T00:31:56.531Z,18.30
2019-04-26T00:34:22.859Z,18.30
2019-04-26T00:36:49.232Z,18.20
2019-04-26T00:39:16.085Z,18.20
2019-04-26T00:41:42.475Z,18.20
2019-04-26T00:44:08.776Z,18.20
2019-04-26T00:46:35.201Z,18.20
2019-04-26T00:49:03.005Z,18.20
2019-04-26T00:51:29.327Z,18.20
2019-04-26T00:53:55.648Z,18.20
2019-04-26T00:56:22.458Z,18.10
2019-04-26T00:58:48.991Z,18.10
2019-04-26T01:01:17.308Z,18.10
2019-04-26T01:03:43.643Z,18.10
2019-04-26T01:06:11.968Z,18.10
2019-04-26T01:08:38.296Z,18.10
2019-04-26T01:11:05.091Z,18.10
2019-04-26T01:13:31.395Z,18.10
2019-04-26T01:15:57.939Z,18.10
2019-04-26T01:18:24.490Z,18.00
2019-04-26T01:20:52.166Z,18.00
2019-04-26T01:23:18.781Z,18.00
2019-04-26T01:25:59.613Z,18.00
2019-04-26T01:28:29.633Z,18.00
2019-04-26T01:30:55.931Z,17.90
2019-04-26T01:33:22.259Z,17.90
2019-04-26T01:35:49.320Z,17.90
2019-04-26T01:38:15.827Z,17.90
2019-04-26T01:40:44.079Z,17.90
2019-04-26T01:43:15.006Z,17.90
2019-04-26T01:45:49.244Z,17.90
2019-04-26T01:48:37.806Z,17.90
2019-04-26T01:51:04.233Z,17.90
2019-04-26T01:53:31.648Z,17.90
2019-04-26T01:55:57.951Z,17.80
2019-04-26T01:58:25.229Z,17.80
2019-04-26T02:00:56.442Z,17.80
2019-04-26T02:03:25.561Z,17.90
2019-04-26T02:05:52.053Z,17.80
2019-04-26T02:08:18.383Z,17.80
2019-04-26T02:10:44.781Z,17.80
2019-04-26T02:13:11.080Z,17.80
2019-04-26T02:15:37.425Z,17.80
2019-04-26T02:18:03.916Z,17.80
2019-04-26T02:20:46.291Z,17.70
2019-04-26T02:23:14.519Z,17.70
2019-04-26T02:25:40.828Z,17.70
2019-04-26T02:28:07.252Z,17.70
2019-04-26T02:30:35.213Z,17.70
2019-04-26T02:33:01.692Z,17.70
2019-04-26T02:35:29.032Z,17.60
2019-04-26T02:37:56.346Z,17.60
2019-04-26T02:40:22.643Z,17.60
2019-04-26T02:42:49.039Z,17.60
2019-04-26T02:45:41.183Z,17.60
2019-04-26T02:48:28.484Z,17.50
2019-04-26T02:51:05.378Z,17.50
2019-04-26T02:53:36.948Z,17.60
2019-04-26T02:56:25.672Z,17.50
2019-04-26T02:59:01.630Z,17.50
2019-04-26T03:01:29.362Z,17.50
2019-04-26T03:03:56.177Z,17.50
2019-04-26T03:06:23.291Z,17.50
2019-04-26T03:08:49.623Z,17.60
2019-04-26T03:11:23.269Z,17.60
2019-04-26T03:14:13.352Z,17.60
2019-04-26T03:17:02.597Z,17.60
2019-04-26T03:19:36.257Z,17.60
2019-04-26T03:22:39.441Z,17.60
2019-04-26T03:25:36.986Z,17.60
2019-04-26T03:28:14.255Z,17.70
2019-04-26T03:30:52.292Z,17.80
2019-04-26T03:33:25.457Z,17.80
2019-04-26T03:36:18.952Z,17.70
2019-04-26T03:38:59.702Z,17.70
2019-04-26T03:41:36.638Z,17.70
2019-04-26T03:44:31.231Z,17.70
2019-04-26T03:46:59.058Z,17.70
2019-04-26T03:49:48.664Z,17.70
2019-04-26T03:52:37.051Z,17.60
2019-04-26T03:55:26.277Z,17.70
2019-04-26T03:58:10.394Z,17.60
2019-04-26T04:00:39.315Z,17.60
2019-04-26T04:03:13.900Z,17.60
2019-04-26T04:05:48.089Z,17.50
2019-04-26T04:08:18.223Z,17.50
2019-04-26T04:10:56.366Z,17.50
2019-04-26T04:13:43.188Z,17.50
2019-04-26T04:16:14.733Z,17.50
2019-04-26T04:18:45.411Z,17.50
2019-04-26T04:21:35.560Z,17.50
2019-04-26T04:24:04.796Z,17.50
2019-04-26T04:26:39.618Z,17.40
2019-04-26T04:29:39.998Z,17.40
2019-04-26T04:32:00.068Z,17.40
2019-04-26T04:34:42.123Z,17.40
2019-04-26T04:37:12.181Z,17.40
2019-04-26T04:40:00.367Z,17.40
2019-04-26T04:42:35.149Z,17.30
2019-04-26T04:45:28.537Z,17.30
2019-04-26T04:48:30.545Z,17.30
2019-04-26T04:51:15.641Z,17.30
2019-04-26T04:53:47.952Z,17.30
2019-04-26T04:56:33.144Z,17.30
2019-04-26T04:59:12.180Z,17.30
2019-04-26T05:02:08.463Z,17.20
2019-04-26T05:04:44.306Z,17.20
2019-04-26T05:07:25.757Z,17.20
2019-04-26T05:10:14.171Z,17.20
2019-04-26T05:12:50.047Z,17.20
2019-04-26T05:15:37.155Z,17.20
2019-04-26T05:18:07.385Z,17.20
2019-04-26T05:20:44.444Z,17.20
2019-04-26T05:23:24.807Z,17.20
2019-04-26T05:26:11.847Z,17.20
2019-04-26T05:28:47.547Z,17.20
2019-04-26T05:31:30.269Z,17.10
2019-04-26T05:34:06.469Z,17.10
2019-04-26T05:36:52.756Z,17.10
2019-04-26T05:39:25.533Z,17.10
2019-04-26T05:42:24.608Z,17.10
2019-04-26T05:45:31.639Z,17.00
2019-04-26T05:48:38.555Z,17.00
2019-04-26T05:51:13.419Z,17.00
2019-04-26T05:54:22.273Z,17.00
2019-04-26T05:56:58.307Z,17.00
2019-04-26T05:59:50.407Z,17.00
2019-04-26T06:02:52.655Z,17.00
2019-04-26T06:05:37.379Z,17.00
2019-04-26T06:08:30.434Z,17.00
2019-04-26T06:10:48.043Z,17.00
2019-04-26T06:13:22.823Z,17.00
2019-04-26T06:16:00.205Z,17.00
2019-04-26T06:18:42.715Z,17.00
2019-04-26T06:21:30.835Z,17.00
2019-04-26T06:24:09.807Z,17.00
2019-04-26T06:27:13.705Z,17.00
2019-04-26T06:29:46.961Z,16.90
2019-04-26T06:32:33.485Z,17.00
2019-04-26T06:35:14.676Z,16.90
2019-04-26T06:38:04.791Z,16.90
2019-04-26T06:41:08.159Z,16.90
2019-04-26T06:43:38.663Z,17.00
2019-04-26T06:46:25.768Z,16.90
2019-04-26T06:49:30.181Z,16.90
2019-04-26T06:52:11.927Z,16.90
2019-04-26T06:55:15.483Z,16.90
2019-04-26T06:58:11.111Z,17.00
2019-04-26T07:00:58.992Z,17.00
2019-04-26T07:03:37.843Z,17.00
2019-04-26T07:06:09.897Z,17.00
2019-04-26T07:08:57.330Z,17.00
2019-04-26T07:11:59.496Z,17.10
2019-04-26T07:14:52.908Z,17.10
2019-04-26T07:17:41.028Z,17.00
2019-04-26T07:20:11.847Z,17.00
2019-04-26T07:23:02.029Z,17.10
2019-04-26T07:25:53.472Z,17.10
2019-04-26T07:28:34.236Z,17.10
2019-04-26T07:31:04.488Z,17.10
2019-04-26T07:33:55.389Z,17.20
2019-04-26T07:36:37.540Z,17.20
2019-04-26T07:39:19.421Z,17.20
2019-04-26T07:42:07.844Z,17.10
2019-04-26T07:44:51.716Z,17.20
2019-04-26T07:47:30.758Z,17.30
2019-04-26T07:50:14.119Z,17.30
2019-04-26T07:52:53.409Z,17.40
2019-04-26T07:55:41.459Z,17.40
2019-04-26T07:58:44.738Z,17.40
2019-04-26T08:01:46.607Z,17.50
2019-04-26T08:04:17.139Z,17.50
2019-04-26T08:06:56.397Z,17.50
2019-04-26T08:09:27.347Z,17.60
2019-04-26T08:11:57.937Z,17.60
2019-04-26T08:14:28.187Z,17.60
2019-04-26T08:17:36.271Z,17.50
2019-04-26T08:20:28.292Z,17.50
2019-04-26T08:22:58.459Z,17.50
2019-04-26T08:25:25.079Z,17.50
2019-04-26T08:27:53.015Z,17.50
2019-04-26T08:30:22.664Z,17.60
2019-04-26T08:32:56.680Z,17.60
2019-04-26T08:51:26.884Z,17.90
2019-04-26T08:53:53.299Z,18.00
2019-04-26T08:56:31.992Z,18.10
2019-04-26T08:59:01.616Z,18.10
2019-04-26T09:01:29.841Z,18.10
2019-04-26T09:03:58.056Z,18.10
2019-04-26T09:06:29.000Z,18.10
2019-04-26T09:08:55.940Z,18.10
2019-04-26T09:11:26.381Z,18.10
2019-04-26T09:13:50.594Z,18.20
2019-04-26T09:16:22.487Z,18.30
2019-04-26T09:18:54.257Z,18.40
2019-04-26T09:21:19.269Z,18.40
2019-04-26T09:24:01.540Z,18.50
2019-04-26T09:26:46.637Z,18.60
2019-04-26T09:29:26.308Z,18.60
2019-04-26T09:31:55.384Z,18.70
2019-04-26T09:34:32.530Z,18.70
2019-04-26T09:36:58.945Z,18.80
2019-04-26T09:39:25.694Z,18.80
2019-04-26T09:41:54.195Z,18.90
2019-04-26T09:44:37.580Z,18.80
2019-04-26T09:47:07.631Z,18.90
2019-04-26T09:49:52.411Z,18.90
2019-04-26T09:52:23.535Z,17.30
2019-04-26T09:54:49.943Z,16.90
2019-04-26T09:57:16.385Z,17.50
2019-04-26T09:59:42.795Z,17.90
2019-04-26T10:02:10.675Z,18.20
2019-04-26T10:04:37.770Z,18.40
2019-04-26T10:07:04.245Z,18.60
2019-04-26T10:09:31.485Z,18.70
2019-04-26T10:12:16.380Z,18.80
2019-04-26T10:14:47.585Z,18.90
2019-04-26T10:17:17.397Z,19.00
2019-04-26T10:19:46.163Z,19.10
2019-04-26T10:22:12.670Z,19.20
2019-04-26T10:24:39.713Z,19.30
2019-04-26T10:27:06.592Z,19.40
2019-04-26T10:29:33.006Z,19.40
2019-04-26T10:32:01.028Z,19.50
2019-04-26T10:34:27.543Z,19.60
2019-04-26T10:36:56.784Z,19.70
2019-04-26T10:39:23.139Z,19.80
2019-04-26T10:41:49.557Z,19.80
2019-04-26T10:44:15.979Z,19.90
2019-04-26T10:46:54.831Z,19.90
2019-04-26T10:49:36.954Z,20.00
2019-04-26T10:52:06.987Z,20.10
2019-04-26T10:54:36.880Z,20.20
2019-04-26T10:57:06.394Z,20.20
2019-04-26T10:59:39.905Z,20.30
2019-04-26T11:02:06.807Z,20.40
2019-04-26T11:04:33.211Z,20.40
2019-04-26T11:07:02.042Z,20.50
2019-04-26T11:09:27.735Z,20.50
2019-04-26T11:11:54.064Z,20.60
2019-04-26T11:14:22.606Z,20.50
2019-04-26T11:16:48.503Z,20.60
2019-04-26T11:19:14.810Z,20.70
2019-04-26T11:21:41.141Z,20.70
2019-04-26T11:24:15.202Z,20.80
2019-04-26T11:26:41.072Z,20.90
2019-04-26T11:29:07.575Z,20.90
2019-04-26T11:31:35.051Z,20.90
2019-04-26T11:34:05.473Z,21.00
2019-04-26T11:36:30.156Z,21.00
2019-04-26T11:38:56.463Z,21.00
2019-04-26T11:41:22.782Z,21.10
2019-04-26T11:43:52.984Z,21.10
2019-04-26T11:46:21.758Z,21.10
2019-04-26T11:48:58.373Z,21.10
2019-04-26T11:51:19.651Z,21.00
2019-04-26T11:53:47.559Z,21.10
2019-04-26T11:56:17.738Z,21.10
2019-04-26T11:58:44.057Z,21.10
2019-04-26T12:01:13.311Z,21.00
2019-04-26T12:03:42.002Z,21.00
2019-04-26T12:06:13.017Z,21.00
2019-04-26T12:08:41.260Z,21.00
2019-04-26T12:11:17.820Z,21.10
2019-04-26T12:13:35.828Z,21.20
2019-04-26T12:16:02.320Z,21.20
2019-04-26T12:18:28.814Z,21.20
2019-04-26T12:20:57.060Z,21.10
2019-04-26T12:23:23.655Z,21.10
2019-04-26T12:25:50.110Z,21.20
2019-04-26T12:28:16.823Z,21.20
2019-04-26T12:30:43.219Z,21.30
2019-04-26T12:33:09.628Z,21.30
2019-04-26T12:35:36.341Z,21.30
2019-04-26T12:38:03.127Z,21.30
2019-04-26T12:40:29.851Z,21.30
2019-04-26T12:42:56.274Z,21.20
2019-04-26T12:45:36.479Z,21.20
2019-04-26T12:48:07.921Z,21.20
2019-04-26T12:50:36.730Z,21.20
2019-04-26T12:53:02.025Z,21.20
2019-04-26T12:55:28.562Z,21.10
2019-04-26T12:57:55.063Z,21.10
2019-04-26T13:00:23.278Z,21.10
2019-04-26T13:02:50.183Z,21.10
2019-04-26T13:05:18.960Z,21.10
2019-04-26T13:07:47.947Z,21.10
2019-04-26T13:10:35.348Z,21.20
2019-04-26T13:13:07.496Z,21.20
2019-04-26T13:15:59.681Z,21.30
2019-04-26T13:18:26.523Z,21.30
2019-04-26T13:20:53.046Z,21.30
2019-04-26T13:23:19.955Z,21.30
2019-04-26T13:25:46.632Z,21.40
2019-04-26T13:28:15.722Z,21.40
2019-04-26T13:30:43.669Z,21.40
2019-04-26T13:33:10.088Z,21.50
2019-04-26T13:35:36.419Z,21.50
2019-04-26T13:38:05.080Z,21.50
2019-04-26T13:40:31.359Z,21.50
2019-04-26T13:42:57.670Z,21.50
2019-04-26T13:45:42.772Z,21.60
2019-04-26T13:48:27.403Z,21.60
2019-04-26T13:51:06.003Z,21.60
2019-04-26T13:53:32.504Z,21.70
2019-04-26T13:56:01.911Z,21.60
2019-04-26T13:58:27.606Z,21.60
2019-04-26T14:00:54.126Z,21.60
2019-04-26T14:03:20.639Z,21.60
2019-04-26T14:05:47.177Z,21.60
2019-04-26T14:08:13.500Z,21.60
2019-04-26T14:10:39.801Z,21.50
2019-04-26T14:13:06.239Z,21.50
2019-04-26T14:15:32.750Z,21.50
2019-04-26T14:18:00.299Z,21.60
2019-04-26T14:20:27.267Z,21.60
2019-04-26T14:23:11.430Z,21.60
2019-04-26T14:25:40.736Z,21.70
2019-04-26T14:28:07.239Z,21.80
2019-04-26T14:30:37.296Z,21.90
2019-04-26T14:33:02.104Z,21.90
2019-04-26T14:35:28.431Z,21.90
2019-04-26T14:37:54.877Z,21.90
2019-04-26T14:40:21.404Z,22.00
2019-04-26T14:42:48.863Z,21.90
2019-04-26T14:45:23.192Z,22.00
2019-04-26T14:47:47.462Z,22.00
2019-04-26T14:50:14.231Z,22.00
2019-04-26T14:52:41.440Z,22.10
2019-04-26T14:55:08.093Z,22.00
2019-04-26T14:57:34.458Z,22.00
2019-04-26T15:00:01.158Z,22.10
2019-04-26T15:02:47.473Z,22.10
2019-04-26T15:05:34.079Z,22.10
2019-04-26T15:08:03.914Z,22.00
2019-04-26T15:10:43.433Z,22.00
2019-04-26T15:13:15.043Z,22.00
2019-04-26T15:15:34.565Z,22.00
2019-04-26T15:18:02.936Z,22.00
2019-04-26T15:20:40.424Z,22.00
2019-04-26T15:23:06.838Z,22.00
2019-04-26T15:25:33.607Z,22.00
2019-04-26T15:27:59.934Z,22.00
2019-04-26T15:30:26.467Z,22.00
2019-04-26T15:32:52.980Z,22.10
2019-04-26T15:35:19.495Z,22.10
2019-04-26T15:37:45.895Z,22.10
2019-04-26T15:40:14.616Z,22.10
2019-04-26T15:43:03.183Z,22.20
2019-04-26T15:45:32.618Z,22.20
2019-04-26T15:48:02.293Z,22.20
2019-04-26T15:50:33.648Z,22.20
2019-04-26T15:53:00.269Z,22.20
2019-04-26T15:55:26.839Z,22.20
2019-04-26T15:57:53.270Z,22.30
2019-04-26T16:00:20.368Z,22.20
2019-04-26T16:02:46.776Z,22.20
2019-04-26T16:05:13.203Z,22.20
2019-04-26T16:07:40.399Z,22.20
2019-04-26T16:10:07.064Z,22.20
2019-04-26T16:12:33.454Z,22.20
2019-04-26T16:15:02.306Z,22.20
2019-04-26T16:17:28.947Z,22.20
2019-04-26T16:19:56.051Z,22.20
2019-04-26T16:22:25.831Z,22.10
2019-04-26T16:24:53.144Z,22.10
2019-04-26T16:27:20.084Z,22.10
2019-04-26T16:29:58.324Z,22.10
2019-04-26T16:32:21.893Z,22.10
2019-04-26T16:34:50.123Z,22.10
2019-04-26T16:37:21.623Z,22.10
2019-04-26T16:39:48.573Z,22.00
2019-04-26T16:42:14.005Z,22.00
2019-04-26T16:44:44.820Z,22.00
2019-04-26T16:47:08.739Z,22.00
2019-04-26T16:49:41.984Z,22.00
2019-04-26T16:52:07.016Z,22.00
2019-04-26T16:54:34.247Z,21.10
2019-04-26T16:57:06.281Z,20.10
2019-04-26T16:59:28.888Z,19.40
2019-04-26T17:01:55.201Z,18.90
2019-04-26T17:04:28.280Z,18.90
2019-04-26T17:06:49.639Z,19.50
2019-04-26T17:09:16.031Z,19.90
2019-04-26T17:11:43.533Z,20.10
2019-04-26T17:14:11.263Z,20.20
2019-04-26T17:16:38.671Z,20.40
2019-04-26T17:19:05.081Z,20.40
2019-04-26T17:21:34.742Z,20.50
2019-04-26T17:24:19.744Z,20.50
2019-04-26T17:26:59.586Z,20.50
2019-04-26T17:29:26.571Z,20.60
2019-04-26T17:31:52.985Z,20.60
2019-04-26T17:34:22.526Z,20.70
2019-04-26T17:36:50.523Z,20.70
2019-04-26T17:39:17.244Z,20.80
2019-04-26T17:41:50.777Z,20.80
2019-04-26T17:44:13.320Z,20.80
2019-04-26T17:46:39.919Z,20.80
2019-04-26T17:49:06.223Z,20.90
2019-04-26T17:51:41.714Z,20.90
2019-04-26T17:54:21.276Z,20.90
2019-04-26T17:56:31.548Z,20.90
2019-04-26T17:58:57.881Z,20.90
2019-04-26T18:01:42.101Z,20.90
2019-04-26T18:03:55.810Z,20.90
2019-04-26T18:06:29.432Z,20.90
2019-04-26T18:08:52.820Z,20.90
2019-04-26T18:11:22.439Z,20.90
2019-04-26T18:13:51.165Z,20.90
2019-04-26T18:16:17.871Z,20.90
2019-04-26T18:18:50.062Z,20.90
2019-04-26T18:21:22.925Z,20.90
2019-04-26T18:23:54.641Z,20.90
2019-04-26T18:26:21.540Z,20.90
2019-04-26T18:28:51.876Z,20.90
2019-04-26T18:31:21.473Z,20.90
2019-04-26T18:33:50.496Z,21.00
2019-04-26T18:36:19.254Z,21.00
2019-04-26T18:38:48.574Z,21.00
2019-04-26T18:41:13.724Z,21.00
2019-04-26T18:43:40.063Z,20.90
2019-04-26T18:46:12.752Z,20.90
2019-04-26T18:48:41.939Z,20.90
2019-04-26T18:51:11.045Z,20.90
2019-04-26T18:53:39.722Z,20.90
2019-04-26T18:56:08.102Z,20.90
2019-04-26T18:58:38.040Z,20.90
2019-04-26T19:01:05.259Z,20.90
2019-04-26T19:03:33.791Z,20.90
2019-04-26T19:06:02.501Z,20.90
2019-04-26T19:08:29.087Z,20.80
2019-04-26T19:11:00.787Z,20.80
2019-04-26T19:13:37.866Z,20.80
2019-04-26T19:16:23.604Z,20.80
2019-04-26T19:18:51.926Z,20.80
2019-04-26T19:21:38.671Z,20.80
2019-04-26T19:24:07.665Z,20.80
2019-04-26T19:26:33.014Z,20.70
2019-04-26T19:28:57.166Z,20.70
2019-04-26T19:31:27.103Z,20.80
2019-04-26T19:33:55.839Z,20.80
2019-04-26T19:36:22.715Z,20.80
2019-04-26T19:38:49.918Z,20.80
2019-04-26T19:41:21.325Z,20.70
2019-04-26T19:43:46.269Z,20.70
2019-04-26T19:46:24.985Z,20.70
2019-04-26T19:48:56.530Z,20.70
2019-04-26T19:51:27.198Z,20.70
2019-04-26T19:54:14.767Z,20.60
2019-04-26T19:56:43.166Z,20.60
2019-04-26T19:59:09.745Z,20.50
2019-04-26T20:01:36.214Z,20.50
2019-04-26T20:04:02.670Z,20.50
2019-04-26T20:06:29.111Z,20.50
2019-04-26T20:08:55.645Z,20.50
2019-04-26T20:11:22.157Z,20.40
2019-04-26T20:13:51.819Z,20.40
2019-04-26T20:16:17.193Z,20.40
2019-04-26T20:18:44.034Z,20.40
2019-04-26T20:21:15.249Z,20.40
2019-04-26T20:23:43.684Z,20.30
2019-04-26T20:26:08.942Z,20.30
2019-04-26T20:28:37.456Z,20.30
2019-04-26T20:31:12.318Z,20.30
2019-04-26T20:33:39.266Z,20.20
2019-04-26T20:36:05.673Z,20.20
2019-04-26T20:38:35.751Z,20.20
2019-04-26T20:41:01.555Z,20.20
2019-04-26T20:43:28.350Z,20.10
2019-04-26T20:46:11.082Z,20.10
2019-04-26T20:48:25.615Z,20.10
2019-04-26T20:50:51.988Z,20.10
2019-04-26T20:53:19.263Z,20.10
2019-04-26T20:55:47.055Z,20.00
2019-04-26T20:58:13.515Z,20.00
2019-04-26T21:00:39.927Z,20.00
2019-04-26T21:03:06.389Z,20.00
2019-04-26T21:05:45.328Z,20.00
2019-04-26T21:08:03.373Z,20.00
2019-04-26T21:10:29.007Z,19.90
2019-04-26T21:12:55.321Z,19.90
2019-04-26T21:15:24.002Z,19.90
2019-04-26T21:17:51.772Z,19.90
2019-04-26T21:20:18.284Z,19.90
2019-04-26T21:22:44.599Z,19.90
2019-04-26T21:25:12.830Z,19.90
2019-04-26T21:27:42.968Z,19.80
2019-04-26T21:30:23.600Z,19.80
2019-04-26T21:32:56.016Z,19.80
2019-04-26T21:35:40.136Z,19.80
2019-04-26T21:38:08.379Z,19.80
2019-04-26T21:40:55.381Z,19.80
2019-04-26T21:43:19.902Z,19.80
2019-04-26T21:45:46.400Z,19.70
2019-04-26T21:48:13.812Z,19.70
2019-04-26T21:50:40.531Z,19.70
2019-04-26T21:53:07.108Z,19.70
2019-04-26T21:55:38.354Z,19.70
2019-04-26T21:58:02.697Z,19.60
2019-04-26T22:00:49.813Z,19.60
2019-04-26T22:03:16.627Z,19.60
2019-04-26T22:05:43.978Z,19.60
2019-04-26T22:08:17.443Z,19.60
2019-04-26T22:10:43.785Z,19.60
2019-04-26T22:13:13.932Z,19.60
2019-04-26T22:15:44.016Z,19.60
2019-04-26T22:18:21.686Z,19.60
2019-04-26T22:20:54.028Z,19.60
2019-04-26T22:23:27.547Z,19.50
2019-04-26T22:25:56.021Z,19.50
2019-04-26T22:28:23.557Z,19.60
2019-04-26T22:30:50.910Z,19.50
2019-04-26T22:33:17.447Z,19.50
2019-04-26T22:35:44.113Z,19.50
2019-04-26T22:38:10.532Z,19.50
2019-04-26T22:40:36.939Z,19.50
2019-04-26T22:43:10.960Z,19.50
2019-04-26T22:45:39.552Z,19.50
2019-04-26T22:48:23.312Z,19.50
2019-04-26T22:50:52.069Z,19.50
2019-04-26T22:53:16.287Z,19.40
2019-04-26T22:55:44.435Z,19.50
2019-04-26T22:58:10.841Z,19.40
2019-04-26T23:00:38.849Z,19.50
2019-04-26T23:03:07.253Z,19.40
2019-04-26T23:05:37.663Z,19.40
2019-04-26T23:08:03.355Z,19.40
2019-04-26T23:10:34.033Z,19.40
2019-04-26T23:13:07.771Z,19.30
2019-04-26T23:15:53.002Z,19.30
2019-04-26T23:18:33.465Z,19.30
2019-04-26T23:21:07.718Z,19.30
2019-04-26T23:23:33.142Z,19.30
2019-04-26T23:26:02.384Z,19.30
2019-04-26T23:28:31.637Z,19.30
2019-04-26T23:30:55.787Z,19.30
2019-04-26T23:33:23.820Z,19.30
2019-04-26T23:35:50.306Z,19.20
2019-04-26T23:38:16.620Z,19.20
2019-04-26T23:40:43.070Z,19.20
2019-04-26T23:43:09.451Z,19.20
2019-04-26T23:45:35.768Z,19.20
2019-04-26T23:48:03.552Z,19.20
2019-04-26T23:50:30.512Z,19.20
2019-04-26T23:52:57.067Z,19.20
2019-04-26T23:55:23.615Z,19.20
2019-04-26T23:57:50.135Z,19.20
